Time;durP1;ratioP1;P1;durP2;ratioP2;P2;SDS_P1;SDS_P2;PMS_P1;PMS_P2;Temp;Humidity;BMP_temperature;BMP_pressure;BME280_temperature;BME280_humidity;BME280_pressure;Samples;Min_cycle;Max_cycle;Signal;HPM_P1;HPM_P2
2022/12/11 00:02:05;;;;;;;69.82;21.90;;;1.20;99.90;;;;;;6130116;23;20553;-90
2022/12/11 00:04:43;;;;;;;70.53;22.88;;;1.50;99.90;;;;;;6109578;23;20445;-88
2022/12/11 00:07:14;;;;;;;75.10;22.30;;;1.60;99.90;;;;;;6129493;23;20030;-89
2022/12/11 00:09:48;;;;;;;82.85;22.20;;;-0.40;99.90;;;;;;6152761;23;20051;-90
2022/12/11 00:12:57;;;;;;;86.03;23.15;;;1.70;99.90;;;;;;6103798;23;20108;-90
2022/12/11 00:15:39;;;;;;;72.15;22.67;;;3.30;99.90;;;;;;6127398;23;20017;-90
2022/12/11 00:18:16;;;;;;;73.03;21.95;;;3.00;99.90;;;;;;6105774;23;20018;-90
2022/12/11 00:20:45;;;;;;;69.57;22.23;;;2.10;99.90;;;;;;6129607;23;20084;-89
2022/12/11 00:23:12;;;;;;;70.50;22.83;;;3.20;99.90;;;;;;6104022;23;20025;-91
2022/12/11 00:26:22;;;;;;;63.25;20.17;;;0.80;99.90;;;;;;6103920;23;20017;-91
2022/12/11 00:29:13;;;;;;;57.95;19.48;;;2.70;99.90;;;;;;6104504;23;20080;-91
2022/12/11 00:31:47;;;;;;;52.17;19.40;;;2.90;99.90;;;;;;6128359;23;20361;-91
2022/12/11 00:34:15;;;;;;;47.80;18.13;;;1.50;99.90;;;;;;6129670;23;20119;-90
2022/12/11 00:36:44;;;;;;;52.30;18.00;;;3.60;99.90;;;;;;6130125;23;20017;-89
2022/12/11 00:39:22;;;;;;;41.78;16.25;;;1.70;99.90;;;;;;6129900;23;20076;-89
2022/12/11 00:41:51;;;;;;;40.22;15.93;;;2.10;99.90;;;;;;6156378;23;20045;-89
2022/12/11 00:44:17;;;;;;;45.05;17.67;;;1.90;99.90;;;;;;6130360;23;20528;-91
2022/12/11 00:47:01;;;;;;;49.58;16.90;;;4.00;99.90;;;;;;6143351;23;20018;-90
2022/12/11 00:49:35;;;;;;;40.97;16.77;;;2.70;99.90;;;;;;6113063;23;20016;-92
2022/12/11 00:52:16;;;;;;;;;;;;;;;;;;;;;
2022/12/11 00:55:05;;;;;;;44.13;17.80;;;3.00;99.90;;;;;;6132923;23;20018;-90
2022/12/11 00:57:37;;;;;;;52.75;18.42;;;-0.10;99.90;;;;;;6146266;23;20025;-91
2022/12/11 01:00:22;;;;;;;47.28;17.55;;;1.90;99.90;;;;;;6178065;23;20009;-92
2022/12/11 01:03:20;;;;;;;44.42;18.08;;;1.60;99.90;;;;;;6125241;23;20025;-91
2022/12/11 01:06:14;;;;;;;44.33;18.00;;;3.20;99.90;;;;;;6111617;23;20013;-90
2022/12/11 01:12:30;;;;;;;;;;;;;;;;;;;;;
2022/12/11 01:15:23;;;;;;;;;;;;;;;;;;;;;
2022/12/11 01:17:58;;;;;;;50.22;17.77;;;1.60;99.90;;;;;;6109902;23;20033;-89
2022/12/11 01:20:42;;;;;;;51.08;17.35;;;0.60;99.90;;;;;;6159340;23;20021;-91
2022/12/11 01:23:17;;;;;;;52.17;17.85;;;1.90;99.90;;;;;;6138961;23;20709;-90
2022/12/11 01:26:03;;;;;;;45.88;16.52;;;0.90;99.90;;;;;;6141415;23;20024;-90
2022/12/11 01:32:39;;;;;;;;;;;;;;;;;;;;;
2022/12/11 01:39:01;;;;;;;47.47;17.15;;;1.70;99.90;;;;;;6148916;23;20033;-91
2022/12/11 01:48:36;;;;;;;;;;;;;;;;;;;;;
2022/12/11 01:51:42;;;;;;;;;;;;;;;;;;;;;
2022/12/11 01:55:12;;;;;;;;;;;;;;;;;;;;;
2022/12/11 02:01:20;;;;;;;47.42;17.38;;;1.80;99.90;;;;;;6153104;23;20021;-91
2022/12/11 02:04:48;;;;;;;48.63;16.63;;;2.20;99.90;;;;;;6131107;23;20052;-90
2022/12/11 02:07:24;;;;;;;45.55;17.00;;;1.90;99.90;;;;;;6037425;23;20019;-90
2022/12/11 02:10:30;;;;;;;;;;;;;;;;;;;;;
2022/12/11 02:17:32;;;;;;;51.30;17.13;;;2.30;99.90;;;;;;6108118;23;20057;-89
2022/12/11 02:20:43;;;;;;;45.38;17.02;;;2.00;99.90;;;;;;6037249;23;20015;-92
2022/12/11 02:23:11;;;;;;;42.83;17.83;;;0.90;99.90;;;;;;6101571;23;20029;-91
2022/12/11 02:26:28;;;;;;;;;;;;;;;;;;;;;
2022/12/11 02:29:45;;;;;;;;;;;;;;;;;;;;;
2022/12/11 02:32:48;;;;;;;;;;;;;;;;;;;;;
2022/12/11 02:36:02;;;;;;;55.67;18.40;;;1.80;99.90;;;;;;6152989;23;20025;-91
2022/12/11 02:38:53;;;;;;;55.67;18.55;;;1.80;99.90;;;;;;6103168;23;20049;-89
2022/12/11 02:41:41;;;;;;;49.60;18.35;;;1.90;99.90;;;;;;6130793;23;20076;-91
2022/12/11 02:44:53;;;;;;;48.42;16.70;;;3.30;99.90;;;;;;6090485;23;20024;-90
2022/12/11 02:47:28;;;;;;;53.88;19.45;;;3.50;99.90;;;;;;6128155;23;20029;-90
2022/12/11 02:50:40;;;;;;;54.95;18.95;;;1.90;99.90;;;;;;6128123;23;20024;-90
2022/12/11 02:53:17;;;;;;;;;;;;;;;;;;;;;
2022/12/11 02:55:57;;;;;;;;;;;;;;;;;;;;;
2022/12/11 02:58:52;;;;;;;54.40;19.88;;;2.10;99.90;;;;;;6144798;23;20022;-91
2022/12/11 03:01:21;;;;;;;51.33;19.15;;;3.80;99.90;;;;;;6104655;23;20026;-90
2022/12/11 03:04:08;;;;;;;;;;;;;;;;;;;;;
2022/12/11 03:07:08;;;;;;;;;;;;;;;;;;;;;
2022/12/11 03:09:47;;;;;;;54.92;19.20;;;2.20;99.90;;;;;;6135760;23;20335;-90
2022/12/11 03:12:36;;;;;;;46.80;17.02;;;3.40;99.90;;;;;;6082192;23;20081;-92
2022/12/11 03:15:48;;;;;;;53.53;19.67;;;3.70;99.90;;;;;;6104663;23;20013;-90
2022/12/11 03:18:54;;;;;;;50.72;18.27;;;1.90;99.90;;;;;;6083234;23;20049;-90
2022/12/11 03:25:31;;;;;;;49.58;18.65;;;1.80;99.90;;;;;;6152969;23;20176;-90
2022/12/11 03:28:47;;;;;;;;;;;;;;;;;;;;;
2022/12/11 03:32:01;;;;;;;;;;;;;;;;;;;;;
2022/12/11 03:34:49;;;;;;;43.72;16.60;;;2.20;99.90;;;;;;6071657;23;20069;-90
2022/12/11 03:37:43;;;;;;;47.17;17.45;;;2.20;99.90;;;;;;6097587;23;20014;-92
2022/12/11 03:41:05;;;;;;;;;;;;;;;;;;;;;
2022/12/11 03:54:48;;;;;;;;;;;;;;;;;;;;;
2022/12/11 03:58:23;;;;;;;41.05;16.85;;;1.40;99.90;;;;;;6106119;23;20034;-91
2022/12/11 04:01:45;;;;;;;;;;;;;;;;;;;;;
2022/12/11 04:12:31;;;;;;;39.80;16.88;;;3.40;99.90;;;;;;6105587;23;20076;-91
2022/12/11 04:15:22;;;;;;;;;;;;;;;;;;;;;
2022/12/11 04:28:12;;;;;;;38.97;16.60;;;2.00;99.90;;;;;;6107801;23;20127;-90
2022/12/11 04:31:32;;;;;;;;;;;;;;;;;;;;;
2022/12/11 04:34:39;;;;;;;35.15;15.23;;;0.30;99.90;;;;;;6127779;23;19971;-90
2022/12/11 04:41:15;;;;;;;35.80;14.98;;;1.80;99.90;;;;;;6122838;23;20081;-91
2022/12/11 04:45:00;;;;;;;35.53;15.10;;;2.00;99.90;;;;;;6137314;23;20040;-91
2022/12/11 04:54:55;;;;;;;34.38;14.13;;;2.20;99.90;;;;;;6037570;23;20023;-90
2022/12/11 04:57:53;;;;;;;30.55;14.05;;;1.80;99.90;;;;;;6038559;23;20035;-90
2022/12/11 05:04:24;;;;;;;35.55;15.88;;;3.40;99.90;;;;;;6124540;23;20103;-91
2022/12/11 05:11:08;;;;;;;34.85;16.02;;;1.10;99.90;;;;;;6122793;23;20036;-91
2022/12/11 05:13:49;;;;;;;;;;;;;;;;;;;;;
2022/12/11 05:17:41;;;;;;;34.08;15.68;;;1.90;99.90;;;;;;6138382;23;20529;-91
2022/12/11 05:47:25;;;;;;;;;;;;;;;;;;;;;
2022/12/11 06:11:20;;;;;;;;;;;;;;;;;;;;;
2022/12/11 06:14:45;;;;;;;;;;;;;;;;;;;;;
2022/12/11 06:51:07;;;;;;;;;;;;;;;;;;;;;
2022/12/11 06:54:37;;;;;;;35.20;16.92;;;0.60;99.90;;;;;;5976084;23;20046;-89
2022/12/11 07:31:12;;;;;;;;;;;2.00;99.90;;;;;;6190336;22;1365183;-85
2022/12/11 07:33:51;;;;;;;35.95;17.00;;;1.60;99.90;;;;;;6166897;23;19923;-91
2022/12/11 07:40:59;;;;;;;;;;;;;;;;;;;;;
2022/12/11 07:44:37;;;;;;;46.00;18.83;;;1.70;99.90;;;;;;6249721;23;20023;-94
2022/12/11 07:51:31;;;;;;;;;;;;;;;;;;;;;
2022/12/11 08:02:56;;;;;;;50.97;18.90;;;2.40;99.90;;;;;;5905531;24;20056;-90
2022/12/11 08:05:37;;;;;;;;;;;;;;;;;;;;;
2022/12/11 08:08:09;;;;;;;58.15;20.10;;;3.30;99.90;;;;;;5978261;23;20023;-89
2022/12/11 08:10:36;;;;;;;53.30;18.85;;;0.80;99.90;;;;;;6072497;23;20024;-91
2022/12/11 08:13:52;;;;;;;;;;;;;;;;;;;;;
2022/12/11 08:20:23;;;;;;;57.45;19.45;;;1.60;99.90;;;;;;6055665;23;20019;-88
2022/12/11 08:22:53;;;;;;;54.92;19.65;;;1.60;99.90;;;;;;6140369;23;20117;-88
2022/12/11 08:25:23;;;;;;;59.30;19.92;;;3.40;99.90;;;;;;6112607;23;20152;-90
2022/12/11 08:28:07;;;;;;;64.65;20.92;;;1.70;99.90;;;;;;6135521;23;20023;-88
2022/12/11 08:30:36;;;;;;;61.88;19.65;;;2.80;99.90;;;;;;6131453;23;20021;-89
2022/12/11 08:33:04;;;;;;;62.15;21.80;;;1.50;99.90;;;;;;6171888;23;20013;-89
2022/12/11 08:35:37;;;;;;;62.00;19.83;;;3.70;99.90;;;;;;6188953;23;20016;-88
2022/12/11 08:38:03;;;;;;;59.83;19.75;;;1.70;99.90;;;;;;6169744;23;20051;-88
2022/12/11 08:40:32;;;;;;;54.80;21.15;;;3.30;99.90;;;;;;6187361;23;20024;-89
2022/12/11 08:43:01;;;;;;;55.63;19.63;;;1.50;99.90;;;;;;6189434;23;20050;-90
2022/12/11 08:45:26;;;;;;;60.13;20.27;;;2.50;99.90;;;;;;6164720;23;20027;-86
2022/12/11 08:47:52;;;;;;;57.78;21.60;;;3.80;99.90;;;;;;6192030;23;20333;-87
2022/12/11 08:50:21;;;;;;;63.85;22.90;;;1.80;99.90;;;;;;6213660;23;20016;-87
2022/12/11 08:52:47;;;;;;;64.50;22.58;;;2.00;99.90;;;;;;6185954;23;20052;-88
2022/12/11 08:55:13;;;;;;;62.83;22.40;;;1.80;99.90;;;;;;6161627;23;20040;-89
2022/12/11 08:57:39;;;;;;;58.45;20.17;;;;;;;;;;6186891;23;20012;-89
2022/12/11 09:00:10;;;;;;;56.33;21.60;;;1.90;99.90;;;;;;6187933;23;20016;-90
2022/12/11 09:02:42;;;;;;;55.25;20.20;;;1.90;99.90;;;;;;6165042;23;20444;-89
2022/12/11 09:05:10;;;;;;;65.10;21.98;;;1.90;99.90;;;;;;6189746;23;20021;-87
2022/12/11 09:07:38;;;;;;;54.15;21.63;;;2.00;99.90;;;;;;6193546;23;20016;-93
2022/12/11 09:10:09;;;;;;;52.00;20.60;;;3.60;99.90;;;;;;6198705;23;20020;-92
2022/12/11 09:12:36;;;;;;;51.58;20.55;;;1.90;99.90;;;;;;6209334;23;20016;-86
2022/12/11 09:15:41;;;;;;;56.80;21.60;;;1.90;99.90;;;;;;6212620;23;20337;-89
2022/12/11 09:18:20;;;;;;;54.45;20.23;;;3.10;99.90;;;;;;6182743;23;20108;-89
2022/12/11 09:20:59;;;;;;;55.33;21.13;;;2.00;99.90;;;;;;6177096;23;20005;-89
2022/12/11 09:23:25;;;;;;;49.78;19.88;;;2.00;99.90;;;;;;6201040;23;20009;-90
2022/12/11 09:26:00;;;;;;;50.92;20.20;;;3.80;99.90;;;;;;6170089;23;20258;-87
2022/12/11 09:28:30;;;;;;;50.05;18.63;;;3.30;99.90;;;;;;6159631;23;20021;-89
2022/12/11 09:30:56;;;;;;;48.03;18.98;;;4.20;99.90;;;;;;6133139;23;20060;-89
2022/12/11 09:33:23;;;;;;;49.95;18.45;;;1.60;99.90;;;;;;6158216;23;20021;-88
2022/12/11 09:36:03;;;;;;;44.78;18.70;;;3.30;99.90;;;;;;6182399;23;20127;-89
2022/12/11 09:38:30;;;;;;;43.03;19.20;;;2.30;99.90;;;;;;6133893;23;20025;-88
2022/12/11 09:40:58;;;;;;;44.38;21.40;;;2.60;99.90;;;;;;6155755;23;20028;-88
2022/12/11 09:43:43;;;;;;;44.33;18.98;;;1.10;99.90;;;;;;6155653;23;20510;-89
2022/12/11 09:46:16;;;;;;;47.83;18.88;;;2.30;99.90;;;;;;6157914;23;20437;-88
2022/12/11 09:49:08;;;;;;;45.58;18.33;;;2.20;99.90;;;;;;6156672;23;20017;-90
2022/12/11 09:52:14;;;;;;;43.10;18.23;;;2.60;99.90;;;;;;6136624;23;20017;-89
2022/12/11 09:54:52;;;;;;;43.42;17.98;;;2.20;99.90;;;;;;6156581;23;20024;-89
2022/12/11 09:57:39;;;;;;;40.38;16.48;;;2.30;99.90;;;;;;6157113;23;20445;-90
2022/12/11 10:00:37;;;;;;;42.25;18.30;;;2.40;99.90;;;;;;6158499;23;20013;-90
2022/12/11 10:04:02;;;;;;;36.92;17.48;;;1.00;99.90;;;;;;6156860;23;20021;-90
2022/12/11 10:07:29;;;;;;;;;;;;;;;;;;;;;
2022/12/11 10:10:49;;;;;;;36.10;16.65;;;0.80;99.90;;;;;;6094293;23;20033;-89
2022/12/11 10:13:26;;;;;;;42.53;17.92;;;0.60;99.90;;;;;;6099746;23;20021;-91
2022/12/11 10:16:32;;;;;;;37.03;18.05;;;1.10;99.90;;;;;;6155937;23;20017;-90
2022/12/11 10:19:03;;;;;;;36.90;17.58;;;2.20;99.90;;;;;;6132512;23;20083;-89
2022/12/11 10:21:43;;;;;;;35.83;17.15;;;2.40;99.90;;;;;;6155960;23;20534;-91
2022/12/11 10:24:26;;;;;;;37.05;16.90;;;2.60;99.90;;;;;;6155380;23;20021;-88
2022/12/11 10:27:07;;;;;;;37.72;18.20;;;2.40;99.90;;;;;;6156229;23;20029;-90
2022/12/11 10:29:44;;;;;;;36.00;16.63;;;4.10;99.90;;;;;;6134630;23;20071;-89
2022/12/11 10:32:45;;;;;;;34.72;17.83;;;4.50;99.90;;;;;;6154948;23;20053;-90
2022/12/11 10:35:47;;;;;;;;;;;;;;;;;;;;;
2022/12/11 10:38:18;;;;;;;34.30;17.17;;;2.80;99.90;;;;;;6180029;23;20017;-90
2022/12/11 10:40:52;;;;;;;36.38;18.25;;;2.80;99.90;;;;;;6155887;23;20437;-89
2022/12/11 10:43:20;;;;;;;35.15;17.73;;;1.30;99.90;;;;;;6132510;23;20023;-89
2022/12/11 10:45:58;;;;;;;35.33;18.48;;;2.90;99.90;;;;;;6159996;23;20017;-87
2022/12/11 10:48:32;;;;;;;31.48;16.95;;;2.60;99.90;;;;;;6130379;23;20076;-90
2022/12/11 10:51:06;;;;;;;29.92;15.90;;;3.90;99.90;;;;;;6130838;23;20028;-89
2022/12/11 10:53:57;;;;;;;32.67;16.83;;;2.80;99.90;;;;;;6157529;23;20028;-89
2022/12/11 10:57:04;;;;;;;29.98;16.20;;;3.30;99.90;;;;;;6160718;23;20081;-89
2022/12/11 10:59:48;;;;;;;29.48;16.17;;;4.80;99.90;;;;;;6152483;23;20139;-89
2022/12/11 11:02:37;;;;;;;26.27;14.85;;;1.50;99.90;;;;;;6154941;23;20028;-89
2022/12/11 11:05:39;;;;;;;27.85;14.98;;;2.50;99.90;;;;;;6132648;23;20029;-90
2022/12/11 11:08:20;;;;;;;26.85;13.75;;;2.80;99.90;;;;;;6133908;23;20024;-89
2022/12/11 11:11:07;;;;;;;26.38;14.35;;;2.80;99.90;;;;;;6158525;23;20017;-89
2022/12/11 11:13:46;;;;;;;25.58;14.05;;;3.00;99.90;;;;;;6161651;23;20064;-90
2022/12/11 11:16:26;;;;;;;27.25;13.55;;;3.40;99.90;;;;;;6173558;23;20025;-92
2022/12/11 11:18:59;;;;;;;24.05;14.63;;;3.30;99.90;;;;;;6194947;23;20017;-89
2022/12/11 11:21:34;;;;;;;26.30;14.88;;;5.00;99.90;;;;;;6157257;23;20021;-87
2022/12/11 11:24:00;;;;;;;26.92;14.63;;;3.40;99.90;;;;;;6161122;23;20021;-88
2022/12/11 11:26:32;;;;;;;23.75;12.98;;;5.00;99.90;;;;;;6168406;23;20021;-88
2022/12/11 11:29:18;;;;;;;23.92;14.52;;;3.20;99.90;;;;;;6168410;23;20024;-88
2022/12/11 11:31:46;;;;;;;24.00;13.30;;;3.30;99.90;;;;;;6154495;23;20523;-88
2022/12/11 11:34:20;;;;;;;20.77;12.50;;;3.30;99.90;;;;;;6130136;23;20031;-88
2022/12/11 11:36:56;;;;;;;22.10;12.55;;;3.30;99.90;;;;;;6157005;23;20041;-89
2022/12/11 11:39:39;;;;;;;22.70;11.27;;;3.50;99.90;;;;;;6156990;23;20025;-89
2022/12/11 11:42:22;;;;;;;20.73;11.02;;;3.40;99.90;;;;;;6156700;23;20017;-88
2022/12/11 11:45:15;;;;;;;19.20;10.65;;;3.20;99.90;;;;;;6156764;23;20020;-90
2022/12/11 11:48:09;;;;;;;19.38;11.18;;;5.30;99.90;;;;;;6156444;23;20105;-87
2022/12/11 11:50:38;;;;;;;19.50;10.93;;;3.30;99.90;;;;;;6156593;23;20025;-89
2022/12/11 11:53:13;;;;;;;18.15;10.32;;;3.30;99.90;;;;;;6156629;23;20017;-89
2022/12/11 11:56:04;;;;;;;20.77;11.68;;;3.70;99.90;;;;;;6155072;23;20025;-88
2022/12/11 11:59:05;;;;;;;21.70;11.23;;;3.30;99.90;;;;;;6156510;23;20071;-87
2022/12/11 12:01:34;;;;;;;19.65;11.05;;;3.20;99.90;;;;;;6155556;23;20095;-90
2022/12/11 12:04:11;;;;;;;23.58;12.00;;;3.30;99.90;;;;;;6155931;23;20017;-88
2022/12/11 12:06:46;;;;;;;20.48;10.20;;;3.00;99.90;;;;;;6157338;23;20016;-89
2022/12/11 12:09:35;;;;;;;21.98;12.27;;;3.10;99.90;;;;;;6157001;23;20776;-88
2022/12/11 12:22:59;;;;;;;;;;;;;;;;;;;;;
2022/12/11 12:29:53;;;;;;;19.10;10.85;;;1.80;99.90;;;;;;5897310;24;20033;-92
2022/12/11 12:32:56;;;;;;;20.20;11.10;;;2.90;99.90;;;;;;5982373;23;20129;-90
2022/12/11 12:36:18;;;;;;;;;;;;;;;;;;;;;
2022/12/11 12:40:01;;;;;;;;;;;;;;;;;;;;;
2022/12/11 12:43:09;;;;;;;20.80;11.43;;;2.70;99.90;;;;;;5981398;23;20518;-90
2022/12/11 12:53:23;;;;;;;21.92;11.80;;;3.00;99.90;;;;;;6160449;23;20051;-92
2022/12/11 12:56:04;;;;;;;19.35;11.05;;;2.60;99.90;;;;;;6135108;23;20051;-88
2022/12/11 13:06:24;;;;;;;;;;;1.50;99.90;;;;;;6158478;23;20026;-89
2022/12/11 13:08:55;;;;;;;23.63;11.68;;;1.10;99.90;;;;;;6069125;23;19924;-90
2022/12/11 13:11:50;;;;;;;24.90;11.75;;;4.60;99.90;;;;;;6016946;23;20023;-90
2022/12/11 13:14:32;;;;;;;;;;;;;;;;;;;;;
2022/12/11 13:17:41;;;;;;;22.50;13.07;;;4.00;99.90;;;;;;6166173;23;20012;-90
2022/12/11 13:20:16;;;;;;;25.67;13.57;;;2.80;99.90;;;;;;6186050;23;20044;-89
2022/12/11 13:22:59;;;;;;;26.40;13.02;;;4.50;99.90;;;;;;6186090;23;20021;-88
2022/12/11 13:25:34;;;;;;;23.58;12.93;;;4.20;99.90;;;;;;6166115;23;20057;-88
2022/12/11 13:28:10;;;;;;;24.95;13.77;;;2.10;99.90;;;;;;6205159;23;20025;-91
2022/12/11 13:30:37;;;;;;;26.10;13.75;;;2.90;99.90;;;;;;6173311;23;20052;-90
2022/12/11 13:33:05;;;;;;;26.02;13.38;;;;;;;;;;6156368;23;20021;-89
2022/12/11 13:35:37;;;;;;;22.33;12.65;;;2.80;99.90;;;;;;6155779;23;20063;-90
2022/12/11 13:38:16;;;;;;;23.02;12.32;;;3.00;99.90;;;;;;6130197;23;20016;-90
2022/12/11 13:41:29;;;;;;;23.77;13.25;;;1.20;99.90;;;;;;6155508;23;20051;-90
2022/12/11 13:44:08;;;;;;;25.00;13.57;;;3.20;99.90;;;;;;6139945;23;20021;-89
2022/12/11 13:46:39;;;;;;;26.90;14.43;;;3.00;99.90;;;;;;6155286;23;20018;-89
2022/12/11 13:49:32;;;;;;;24.92;13.90;;;3.00;99.90;;;;;;6153146;23;20021;-89
2022/12/11 13:52:01;;;;;;;25.48;14.13;;;2.70;99.90;;;;;;6156177;23;20032;-89
2022/12/11 13:54:32;;;;;;;24.42;13.32;;;2.90;99.90;;;;;;6131422;23;20337;-89
2022/12/11 13:57:20;;;;;;;26.40;13.80;;;1.20;99.90;;;;;;6156799;23;20108;-88
2022/12/11 14:00:18;;;;;;;25.50;13.88;;;2.60;99.90;;;;;;6156787;23;20377;-88
2022/12/11 14:02:53;;;;;;;22.95;12.73;;;2.70;99.90;;;;;;6155923;23;20071;-89
2022/12/11 14:05:20;;;;;;;25.00;13.43;;;2.60;99.90;;;;;;6156179;23;20155;-88
2022/12/11 14:07:59;;;;;;;23.20;12.60;;;2.50;99.90;;;;;;6181685;23;20034;-88
2022/12/11 14:10:32;;;;;;;25.20;13.82;;;2.60;99.90;;;;;;6157067;23;20032;-88
2022/12/11 14:13:08;;;;;;;23.52;12.75;;;2.40;99.90;;;;;;6155514;23;20017;-87
2022/12/11 14:15:38;;;;;;;23.98;12.88;;;2.40;99.90;;;;;;6155877;23;20072;-87
2022/12/11 14:18:04;;;;;;;24.80;13.77;;;2.30;99.90;;;;;;6131358;23;20021;-89
2022/12/11 14:20:34;;;;;;;25.70;14.00;;;2.30;99.90;;;;;;6180645;23;20075;-88
2022/12/11 14:23:29;;;;;;;25.63;14.20;;;2.20;99.90;;;;;;6154390;23;20091;-88
2022/12/11 14:26:03;;;;;;;27.77;14.80;;;1.60;99.90;;;;;;6143875;23;20013;-88
2022/12/11 14:28:36;;;;;;;28.73;13.95;;;2.30;99.90;;;;;;6156239;23;20017;-88
2022/12/11 14:31:06;;;;;;;25.73;13.88;;;2.10;99.90;;;;;;6155915;23;20021;-88
2022/12/11 14:33:42;;;;;;;25.70;13.93;;;2.50;99.90;;;;;;6155639;23;20027;-87
2022/12/11 14:36:12;;;;;;;28.58;14.85;;;0.70;99.90;;;;;;6154376;23;20013;-88
2022/12/11 14:38:46;;;;;;;26.35;13.95;;;4.00;99.90;;;;;;6154700;23;20021;-88
2022/12/11 14:41:28;;;;;;;27.00;13.15;;;3.90;99.90;;;;;;6154979;23;20422;-89
2022/12/11 14:44:03;;;;;;;25.55;12.70;;;2.00;99.90;;;;;;6155289;23;20347;-89
2022/12/11 14:47:13;;;;;;;24.75;13.40;;;3.90;99.90;;;;;;6156596;23;20087;-91
2022/12/11 14:50:05;;;;;;;26.90;14.40;;;2.50;99.90;;;;;;6159219;23;20391;-91
2022/12/11 14:55:33;;;;;;;29.45;16.00;;;1.90;99.90;;;;;;6173439;23;20036;-89
2022/12/11 15:02:23;;;;;;;29.33;15.43;;;2.00;99.90;;;;;;6111968;23;20084;-89
2022/12/11 15:09:05;;;;;;;27.83;15.25;;;1.60;99.90;;;;;;6153056;23;20020;-89
2022/12/11 15:11:36;;;;;;;29.55;15.98;;;1.10;99.90;;;;;;6106741;23;20026;-88
2022/12/11 15:14:15;;;;;;;28.15;14.57;;;1.30;99.90;;;;;;6105329;23;20025;-90
2022/12/11 15:16:41;;;;;;;31.05;18.35;;;3.10;99.90;;;;;;6154281;23;20100;-88
2022/12/11 15:20:02;;;;;;;27.05;15.65;;;1.80;99.90;;;;;;6166848;23;20025;-90
2022/12/11 15:22:37;;;;;;;28.70;15.38;;;1.80;99.90;;;;;;6177884;23;20021;-89
2022/12/11 15:25:10;;;;;;;27.77;14.23;;;2.90;99.90;;;;;;6146047;23;20025;-89
2022/12/11 15:27:39;;;;;;;31.23;15.23;;;1.30;99.90;;;;;;6167263;23;20017;-88
2022/12/11 15:30:27;;;;;;;;;;;;;;;;;;;;;
2022/12/11 15:33:20;;;;;;;26.73;14.55;;;1.40;99.90;;;;;;6201623;23;20065;-88
2022/12/11 15:35:59;;;;;;;34.38;18.00;;;1.20;99.90;;;;;;6159148;23;20017;-90
2022/12/11 15:38:46;;;;;;;33.47;19.00;;;0.30;99.90;;;;;;6156770;23;20017;-88
2022/12/11 15:41:27;;;;;;;45.08;24.95;;;1.40;99.90;;;;;;6158530;23;20079;-89
2022/12/11 15:43:59;;;;;;;33.47;16.52;;;1.10;99.90;;;;;;6135623;23;20061;-89
2022/12/11 15:46:37;;;;;;;25.42;14.05;;;1.20;99.90;;;;;;6159102;23;20024;-91
2022/12/11 15:49:25;;;;;;;30.65;16.13;;;1.70;99.90;;;;;;6184266;23;20024;-90
2022/12/11 15:55:45;;;;;;;28.20;14.65;;;1.10;99.90;;;;;;6187415;23;20076;-89
2022/12/11 15:58:36;;;;;;;;;;;;;;;;;;;;;
2022/12/11 16:01:18;;;;;;;;;;;;;;;;;;;;;
2022/12/11 16:04:01;;;;;;;32.67;16.60;;;0.20;99.90;;;;;;6206458;23;20001;-91
2022/12/11 16:06:45;;;;;;;;;;;;;;;;;;;;;
2022/12/11 16:09:24;;;;;;;32.20;16.90;;;1.90;99.90;;;;;;6207629;23;20040;-87
2022/12/11 16:11:53;;;;;;;32.28;15.90;;;1.40;99.90;;;;;;6144477;23;20025;-86
2022/12/11 16:14:21;;;;;;;30.42;15.30;;;1.00;99.90;;;;;;6132314;23;20408;-88
2022/12/11 16:16:47;;;;;;;29.95;15.65;;;1.10;99.90;;;;;;6133757;23;20028;-87
2022/12/11 16:19:37;;;;;;;33.97;17.60;;;0.50;99.90;;;;;;6157078;23;20021;-93
2022/12/11 16:27:08;;;;;;;31.55;14.70;;;1.20;99.90;;;;;;6203111;23;20031;-90
2022/12/11 16:34:37;;;;;;;;;;;;;;;;;;;;;
2022/12/11 16:37:45;;;;;;;;;;;;;;;;;;;;;
2022/12/11 16:40:37;;;;;;;;;;;;;;;;;;;;;
2022/12/11 16:43:07;;;;;;;33.38;16.92;;;1.10;99.90;;;;;;6164232;23;20024;-89
2022/12/11 16:45:40;;;;;;;46.35;21.60;;;2.90;99.90;;;;;;6162481;23;20456;-89
2022/12/11 16:48:40;;;;;;;40.53;20.52;;;1.00;99.90;;;;;;6137895;23;20016;-88
2022/12/11 16:51:55;;;;;;;36.28;18.67;;;1.00;99.90;;;;;;6150625;23;20059;-93
2022/12/11 17:54:26;;;;;;;;;;;;;;;;;;;;;
2022/12/11 17:57:12;;;;;;;31.77;14.80;;;3.10;99.90;;;;;;6150067;23;20029;-92
2022/12/11 17:59:48;;;;;;;;;;;;;;;;;;;;;
2022/12/11 18:06:34;;;;;;;31.13;16.00;;;0.80;99.90;;;;;;6104789;23;20030;-90
2022/12/11 18:09:51;;;;;;;;;;;;;;;;;;;;;
2022/12/11 18:13:25;;;;;;;;;;;;;;;;;;;;;
2022/12/11 18:16:51;;;;;;;31.65;16.08;;;-0.40;99.90;;;;;;6150674;23;20017;-89
2022/12/11 18:19:53;;;;;;;;;;;;;;;;;;;;;
2022/12/11 18:23:17;;;;;;;;;;;;;;;;;;;;;
2022/12/11 18:32:19;;;;;;;;;;;;;;;;;;;;;
2022/12/11 18:39:10;;;;;;;;;;;;;;;;;;;;;
2022/12/11 18:42:04;;;;;;;30.48;15.20;;;0.90;99.90;;;;;;6032831;23;20034;-89
2022/12/11 18:49:22;;;;;;;;;;;;;;;;;;;;;
2022/12/11 19:25:27;;;;;;;35.78;16.33;;;2.80;99.90;;;;;;6159402;23;20073;-93
2022/12/11 20:31:06;;;;;;;30.83;14.05;;;0.60;99.90;;;;;;6200935;23;20024;-90
2022/12/11 20:34:41;;;;;;;33.75;16.02;;;-0.20;99.90;;;;;;6195137;23;20058;-94
2022/12/11 20:38:29;;;;;;;;;;;;;;;;;;;;;
2022/12/11 21:40:07;;;;;;;;;;;;;;;;;;;;;
2022/12/11 21:43:30;;;;;;;;;;;;;;;;;;;;;
2022/12/11 21:57:43;;;;;;;32.22;15.27;;;0.10;99.90;;;;;;6298416;22;20027;-92
2022/12/11 22:00:27;;;;;;;30.90;16.23;;;-1.70;99.90;;;;;;6259200;22;20026;-89
2022/12/11 22:10:06;;;;;;;33.80;15.43;;;0.00;99.90;;;;;;6294894;22;20042;-90
2022/12/11 22:12:58;;;;;;;;;;;;;;;;;;;;;
2022/12/11 22:15:33;;;;;;;31.80;15.60;;;;;;;;;;6286764;22;20507;-89
2022/12/11 22:18:42;;;;;;;29.05;14.25;;;-0.20;99.90;;;;;;6261346;22;20015;-90
2022/12/11 22:21:23;;;;;;;37.05;19.38;;;0.00;99.90;;;;;;6311363;22;20023;-91
2022/12/11 22:26:59;;;;;;;35.65;17.00;;;-0.10;99.90;;;;;;6270049;22;20521;-91
2022/12/11 22:29:34;;;;;;;31.10;15.52;;;1.20;99.90;;;;;;6256673;22;20015;-91
2022/12/11 22:32:36;;;;;;;;;;;;;;;;;;;;;
2022/12/11 22:35:05;;;;;;;29.27;15.50;;;0.10;99.90;;;;;;6278659;22;20355;-90
2022/12/11 22:37:43;;;;;;;39.05;20.40;;;-0.10;99.90;;;;;;6286470;22;20023;-92
2022/12/11 22:40:42;;;;;;;;;;;;;;;;;;;;;
2022/12/11 22:43:17;;;;;;;37.30;20.52;;;1.50;99.90;;;;;;6286942;22;20019;-90
2022/12/11 22:45:52;;;;;;;32.30;18.60;;;-0.40;99.90;;;;;;6262656;22;20015;-90
2022/12/11 22:48:34;;;;;;;36.03;18.52;;;-0.10;99.90;;;;;;6275233;22;20018;-93
2022/12/11 22:51:09;;;;;;;34.78;18.33;;;-0.50;99.90;;;;;;6306927;22;20022;-91
2022/12/11 22:53:35;;;;;;;33.92;17.17;;;-0.40;99.90;;;;;;6279337;22;20015;-90
2022/12/11 22:56:42;;;;;;;31.20;16.35;;;-0.40;99.90;;;;;;6272136;22;20367;-92
2022/12/11 22:59:14;;;;;;;37.72;16.25;;;-0.40;99.90;;;;;;6250432;22;20015;-89
2022/12/11 23:01:45;;;;;;;29.67;15.35;;;0.70;99.90;;;;;;6224606;22;20019;-91
2022/12/11 23:04:16;;;;;;;31.45;15.00;;;1.60;99.90;;;;;;6224733;22;20018;-89
2022/12/11 23:06:42;;;;;;;34.20;15.55;;;-1.60;99.90;;;;;;6224729;22;20027;-90
2022/12/11 23:09:22;;;;;;;35.05;16.10;;;1.60;99.90;;;;;;6249829;22;20024;-91
2022/12/11 23:11:54;;;;;;;31.75;15.50;;;1.10;99.90;;;;;;6249653;22;20019;-88
2022/12/11 23:14:25;;;;;;;32.10;15.48;;;-0.10;99.90;;;;;;6249620;22;20050;-89
2022/12/11 23:17:01;;;;;;;33.75;16.15;;;0.60;99.90;;;;;;6225287;22;20146;-90
2022/12/11 23:19:27;;;;;;;33.53;15.93;;;-0.40;99.90;;;;;;6250740;22;20026;-90
2022/12/11 23:21:55;;;;;;;32.65;15.38;;;-0.60;99.90;;;;;;6251413;22;20066;-91
2022/12/11 23:24:21;;;;;;;32.30;15.75;;;-0.80;99.90;;;;;;6240563;22;20014;-91
2022/12/11 23:26:47;;;;;;;31.17;15.23;;;;;;;;;;6245448;22;20016;-90
2022/12/11 23:29:14;;;;;;;29.42;15.80;;;-0.60;99.90;;;;;;6259605;22;20027;-89
2022/12/11 23:31:40;;;;;;;34.17;15.80;;;0.90;99.90;;;;;;6225568;22;20019;-89
2022/12/11 23:34:22;;;;;;;35.92;16.85;;;-0.70;99.90;;;;;;6261415;22;20014;-90
2022/12/11 23:36:54;;;;;;;32.90;15.90;;;-1.50;99.90;;;;;;6271573;22;20075;-89
2022/12/11 23:39:25;;;;;;;32.40;15.90;;;-0.60;99.90;;;;;;6213384;22;20082;-88
2022/12/11 23:41:54;;;;;;;35.72;16.25;;;-0.40;99.90;;;;;;6257468;22;20051;-87
2022/12/11 23:44:22;;;;;;;35.05;15.93;;;-1.40;99.90;;;;;;6274905;22;20519;-91
2022/12/11 23:46:57;;;;;;;31.90;15.45;;;0.90;99.90;;;;;;6245758;22;20466;-89
2022/12/11 23:49:26;;;;;;;32.53;16.13;;;1.40;99.90;;;;;;6225210;22;20522;-90
2022/12/11 23:51:54;;;;;;;31.85;15.38;;;0.20;99.90;;;;;;6276406;22;20016;-89
2022/12/11 23:54:23;;;;;;;32.72;14.90;;;-0.70;99.90;;;;;;6222873;22;20020;-90
2022/12/11 23:56:49;;;;;;;33.72;15.63;;;0.50;99.90;;;;;;6244808;22;20020;-89
2022/12/11 23:59:15;;;;;;;38.42;18.83;;;-0.90;99.90;;;;;;6245850;22;20517;-90
